sensor_id;sensor_type;location;lat;lon;timestamp;P1;durP1;ratioP1;P2;durP2;ratioP2
55063;SDS011;40963;52.168;21.296;2022-11-20T00:00:44;96.80;;;33.78;;
55063;SDS011;40963;52.168;21.296;2022-11-20T00:03:10;105.18;;;37.35;;
55063;SDS011;40963;52.168;21.296;2022-11-20T00:05:36;83.05;;;31.63;;
55063;SDS011;40963;52.168;21.296;2022-11-20T00:08:01;86.53;;;33.63;;
55063;SDS011;40963;52.168;21.296;2022-11-20T00:10:27;107.40;;;35.90;;
55063;SDS011;40963;52.168;21.296;2022-11-20T00:12:53;94.13;;;34.10;;
55063;SDS011;40963;52.168;21.296;2022-11-20T00:15:18;94.80;;;35.08;;
55063;SDS011;40963;52.168;21.296;2022-11-20T00:17:44;92.90;;;32.65;;
55063;SDS011;40963;52.168;21.296;2022-11-20T00:20:10;78.47;;;32.67;;
55063;SDS011;40963;52.168;21.296;2022-11-20T00:22:36;77.63;;;29.08;;
55063;SDS011;40963;52.168;21.296;2022-11-20T00:25:01;75.32;;;28.08;;
55063;SDS011;40963;52.168;21.296;2022-11-20T00:27:27;80.75;;;28.30;;
55063;SDS011;40963;52.168;21.296;2022-11-20T00:29:53;80.35;;;27.60;;
55063;SDS011;40963;52.168;21.296;2022-11-20T00:32:18;92.43;;;28.17;;
55063;SDS011;40963;52.168;21.296;2022-11-20T00:34:44;79.35;;;28.25;;
55063;SDS011;40963;52.168;21.296;2022-11-20T00:37:10;77.78;;;25.73;;
55063;SDS011;40963;52.168;21.296;2022-11-20T00:39:35;91.68;;;29.35;;
55063;SDS011;40963;52.168;21.296;2022-11-20T00:42:01;72.32;;;26.40;;
55063;SDS011;40963;52.168;21.296;2022-11-20T00:44:27;67.65;;;25.60;;
55063;SDS011;40963;52.168;21.296;2022-11-20T00:46:52;60.55;;;22.80;;
55063;SDS011;40963;52.168;21.296;2022-11-20T00:49:18;55.90;;;23.30;;
55063;SDS011;40963;52.168;21.296;2022-11-20T00:51:43;62.78;;;24.67;;
55063;SDS011;40963;52.168;21.296;2022-11-20T00:54:09;62.83;;;24.77;;
55063;SDS011;40963;52.168;21.296;2022-11-20T00:56:35;77.00;;;25.05;;
55063;SDS011;40963;52.168;21.296;2022-11-20T00:59:01;66.22;;;23.20;;
55063;SDS011;40963;52.168;21.296;2022-11-20T01:01:26;52.65;;;20.50;;
55063;SDS011;40963;52.168;21.296;2022-11-20T01:03:55;50.17;;;20.95;;
55063;SDS011;40963;52.168;21.296;2022-11-20T01:06:26;53.70;;;21.15;;
55063;SDS011;40963;52.168;21.296;2022-11-20T01:08:54;76.40;;;22.05;;
55063;SDS011;40963;52.168;21.296;2022-11-20T01:11:23;67.70;;;22.77;;
55063;SDS011;40963;52.168;21.296;2022-11-20T01:13:51;56.20;;;22.55;;
55063;SDS011;40963;52.168;21.296;2022-11-20T01:16:19;52.67;;;21.35;;
55063;SDS011;40963;52.168;21.296;2022-11-20T01:18:47;49.05;;;22.05;;
55063;SDS011;40963;52.168;21.296;2022-11-20T01:21:14;48.95;;;20.48;;
55063;SDS011;40963;52.168;21.296;2022-11-20T01:23:45;75.32;;;22.95;;
55063;SDS011;40963;52.168;21.296;2022-11-20T01:26:12;62.78;;;23.17;;
55063;SDS011;40963;52.168;21.296;2022-11-20T01:28:39;69.20;;;26.25;;
55063;SDS011;40963;52.168;21.296;2022-11-20T01:31:19;62.47;;;24.02;;
55063;SDS011;40963;52.168;21.296;2022-11-20T01:33:46;44.70;;;21.17;;
55063;SDS011;40963;52.168;21.296;2022-11-20T01:36:14;65.00;;;23.45;;
55063;SDS011;40963;52.168;21.296;2022-11-20T01:38:41;70.55;;;25.90;;
55063;SDS011;40963;52.168;21.296;2022-11-20T01:41:08;81.97;;;28.92;;
55063;SDS011;40963;52.168;21.296;2022-11-20T01:43:35;63.97;;;25.60;;
55063;SDS011;40963;52.168;21.296;2022-11-20T01:51:14;82.07;;;28.77;;
55063;SDS011;40963;52.168;21.296;2022-11-20T01:54:03;69.40;;;27.13;;
55063;SDS011;40963;52.168;21.296;2022-11-20T01:56:33;73.25;;;27.20;;
55063;SDS011;40963;52.168;21.296;2022-11-20T01:59:04;93.28;;;28.35;;
55063;SDS011;40963;52.168;21.296;2022-11-20T02:01:32;68.93;;;27.13;;
55063;SDS011;40963;52.168;21.296;2022-11-20T02:03:58;55.75;;;25.17;;
55063;SDS011;40963;52.168;21.296;2022-11-20T02:09:08;84.15;;;28.13;;
55063;SDS011;40963;52.168;21.296;2022-11-20T02:11:35;78.18;;;28.35;;
55063;SDS011;40963;52.168;21.296;2022-11-20T02:14:00;77.38;;;27.67;;
55063;SDS011;40963;52.168;21.296;2022-11-20T02:17:00;73.70;;;29.85;;
55063;SDS011;40963;52.168;21.296;2022-11-20T02:19:23;81.80;;;31.10;;
55063;SDS011;40963;52.168;21.296;2022-11-20T02:21:51;72.20;;;27.75;;
55063;SDS011;40963;52.168;21.296;2022-11-20T02:24:34;66.70;;;26.42;;
55063;SDS011;40963;52.168;21.296;2022-11-20T02:27:02;74.10;;;27.50;;
55063;SDS011;40963;52.168;21.296;2022-11-20T02:29:40;64.95;;;26.42;;
55063;SDS011;40963;52.168;21.296;2022-11-20T02:32:25;64.57;;;24.02;;
55063;SDS011;40963;52.168;21.296;2022-11-20T02:34:51;71.28;;;25.63;;
55063;SDS011;40963;52.168;21.296;2022-11-20T02:37:16;71.68;;;25.80;;
55063;SDS011;40963;52.168;21.296;2022-11-20T02:39:44;73.10;;;26.88;;
55063;SDS011;40963;52.168;21.296;2022-11-20T02:42:12;53.95;;;23.02;;
55063;SDS011;40963;52.168;21.296;2022-11-20T02:44:38;78.65;;;25.80;;
55063;SDS011;40963;52.168;21.296;2022-11-20T02:47:04;48.13;;;20.88;;
55063;SDS011;40963;52.168;21.296;2022-11-20T02:49:29;62.55;;;23.40;;
55063;SDS011;40963;52.168;21.296;2022-11-20T02:51:55;41.47;;;19.65;;
55063;SDS011;40963;52.168;21.296;2022-11-20T02:54:21;59.38;;;23.27;;
55063;SDS011;40963;52.168;21.296;2022-11-20T02:56:47;46.70;;;20.77;;
55063;SDS011;40963;52.168;21.296;2022-11-20T02:59:12;49.28;;;21.38;;
55063;SDS011;40963;52.168;21.296;2022-11-20T03:01:38;54.63;;;21.20;;
55063;SDS011;40963;52.168;21.296;2022-11-20T03:04:04;58.30;;;21.67;;
55063;SDS011;40963;52.168;21.296;2022-11-20T03:06:30;53.42;;;19.65;;
55063;SDS011;40963;52.168;21.296;2022-11-20T03:08:55;50.90;;;20.02;;
55063;SDS011;40963;52.168;21.296;2022-11-20T03:11:21;52.30;;;19.17;;
55063;SDS011;40963;52.168;21.296;2022-11-20T03:13:48;50.90;;;20.85;;
55063;SDS011;40963;52.168;21.296;2022-11-20T03:16:15;61.50;;;19.60;;
55063;SDS011;40963;52.168;21.296;2022-11-20T03:18:43;47.17;;;21.17;;
55063;SDS011;40963;52.168;21.296;2022-11-20T03:21:09;56.75;;;21.20;;
55063;SDS011;40963;52.168;21.296;2022-11-20T03:23:36;67.07;;;22.33;;
55063;SDS011;40963;52.168;21.296;2022-11-20T03:26:19;53.92;;;21.25;;
55063;SDS011;40963;52.168;21.296;2022-11-20T03:28:50;66.57;;;21.83;;
55063;SDS011;40963;52.168;21.296;2022-11-20T03:31:23;50.22;;;21.08;;
55063;SDS011;40963;52.168;21.296;2022-11-20T03:33:51;53.38;;;23.75;;
55063;SDS011;40963;52.168;21.296;2022-11-20T03:36:18;50.95;;;24.58;;
55063;SDS011;40963;52.168;21.296;2022-11-20T03:38:45;59.13;;;23.52;;
55063;SDS011;40963;52.168;21.296;2022-11-20T03:41:18;59.85;;;23.33;;
55063;SDS011;40963;52.168;21.296;2022-11-20T03:43:53;60.13;;;23.15;;
55063;SDS011;40963;52.168;21.296;2022-11-20T03:46:21;60.63;;;23.35;;
55063;SDS011;40963;52.168;21.296;2022-11-20T03:48:47;56.22;;;21.58;;
55063;SDS011;40963;52.168;21.296;2022-11-20T03:51:14;48.78;;;20.25;;
55063;SDS011;40963;52.168;21.296;2022-11-20T03:53:40;52.88;;;21.85;;
55063;SDS011;40963;52.168;21.296;2022-11-20T03:56:07;71.57;;;20.92;;
55063;SDS011;40963;52.168;21.296;2022-11-20T03:58:34;47.67;;;20.33;;
55063;SDS011;40963;52.168;21.296;2022-11-20T04:01:07;47.30;;;20.75;;
55063;SDS011;40963;52.168;21.296;2022-11-20T04:03:35;51.45;;;21.83;;
55063;SDS011;40963;52.168;21.296;2022-11-20T04:06:06;52.58;;;20.38;;
55063;SDS011;40963;52.168;21.296;2022-11-20T04:08:39;49.78;;;20.10;;
55063;SDS011;40963;52.168;21.296;2022-11-20T04:11:47;54.40;;;22.27;;
55063;SDS011;40963;52.168;21.296;2022-11-20T04:13:58;45.45;;;20.00;;
55063;SDS011;40963;52.168;21.296;2022-11-20T04:16:26;37.78;;;17.15;;
55063;SDS011;40963;52.168;21.296;2022-11-20T04:18:54;59.95;;;20.77;;
55063;SDS011;40963;52.168;21.296;2022-11-20T04:21:21;61.55;;;24.92;;
55063;SDS011;40963;52.168;21.296;2022-11-20T04:23:47;57.35;;;22.98;;
55063;SDS011;40963;52.168;21.296;2022-11-20T04:26:14;60.20;;;20.55;;
55063;SDS011;40963;52.168;21.296;2022-11-20T04:28:39;49.20;;;19.58;;
55063;SDS011;40963;52.168;21.296;2022-11-20T04:31:06;50.95;;;20.92;;
55063;SDS011;40963;52.168;21.296;2022-11-20T04:33:39;48.58;;;17.98;;
55063;SDS011;40963;52.168;21.296;2022-11-20T04:38:34;40.35;;;18.55;;
55063;SDS011;40963;52.168;21.296;2022-11-20T04:41:01;43.58;;;18.30;;
55063;SDS011;40963;52.168;21.296;2022-11-20T04:43:29;43.20;;;18.02;;
55063;SDS011;40963;52.168;21.296;2022-11-20T04:45:56;40.60;;;16.98;;
55063;SDS011;40963;52.168;21.296;2022-11-20T04:48:22;47.15;;;18.58;;
55063;SDS011;40963;52.168;21.296;2022-11-20T04:50:49;47.20;;;18.63;;
55063;SDS011;40963;52.168;21.296;2022-11-20T04:53:15;45.78;;;18.10;;
55063;SDS011;40963;52.168;21.296;2022-11-20T04:55:40;45.58;;;18.58;;
55063;SDS011;40963;52.168;21.296;2022-11-20T04:58:06;44.60;;;18.38;;
55063;SDS011;40963;52.168;21.296;2022-11-20T05:00:32;36.55;;;16.27;;
55063;SDS011;40963;52.168;21.296;2022-11-20T05:02:57;48.75;;;18.05;;
55063;SDS011;40963;52.168;21.296;2022-11-20T05:05:23;47.50;;;18.35;;
55063;SDS011;40963;52.168;21.296;2022-11-20T05:07:49;40.90;;;17.63;;
55063;SDS011;40963;52.168;21.296;2022-11-20T05:10:15;45.42;;;19.38;;
55063;SDS011;40963;52.168;21.296;2022-11-20T05:12:41;48.75;;;17.90;;
55063;SDS011;40963;52.168;21.296;2022-11-20T05:15:06;49.38;;;19.80;;
55063;SDS011;40963;52.168;21.296;2022-11-20T05:17:32;50.58;;;19.17;;
55063;SDS011;40963;52.168;21.296;2022-11-20T05:19:58;44.22;;;18.33;;
55063;SDS011;40963;52.168;21.296;2022-11-20T05:22:24;51.78;;;18.73;;
55063;SDS011;40963;52.168;21.296;2022-11-20T05:24:49;43.50;;;18.17;;
55063;SDS011;40963;52.168;21.296;2022-11-20T05:27:15;51.50;;;17.92;;
55063;SDS011;40963;52.168;21.296;2022-11-20T05:29:41;50.22;;;20.02;;
55063;SDS011;40963;52.168;21.296;2022-11-20T05:32:06;42.80;;;19.50;;
55063;SDS011;40963;52.168;21.296;2022-11-20T05:34:34;36.88;;;18.40;;
55063;SDS011;40963;52.168;21.296;2022-11-20T05:37:00;40.45;;;17.52;;
55063;SDS011;40963;52.168;21.296;2022-11-20T05:39:26;35.22;;;16.98;;
55063;SDS011;40963;52.168;21.296;2022-11-20T05:41:52;33.75;;;15.25;;
55063;SDS011;40963;52.168;21.296;2022-11-20T05:44:38;32.38;;;17.63;;
55063;SDS011;40963;52.168;21.296;2022-11-20T05:47:04;38.60;;;16.05;;
55063;SDS011;40963;52.168;21.296;2022-11-20T05:49:30;41.70;;;17.52;;
55063;SDS011;40963;52.168;21.296;2022-11-20T05:51:56;42.85;;;17.42;;
55063;SDS011;40963;52.168;21.296;2022-11-20T05:54:21;53.05;;;17.77;;
55063;SDS011;40963;52.168;21.296;2022-11-20T05:56:47;45.33;;;17.67;;
55063;SDS011;40963;52.168;21.296;2022-11-20T05:59:12;42.67;;;19.42;;
55063;SDS011;40963;52.168;21.296;2022-11-20T06:01:38;34.25;;;16.30;;
55063;SDS011;40963;52.168;21.296;2022-11-20T06:04:04;36.70;;;15.52;;
55063;SDS011;40963;52.168;21.296;2022-11-20T06:06:29;46.05;;;17.83;;
55063;SDS011;40963;52.168;21.296;2022-11-20T06:08:55;48.85;;;18.85;;
55063;SDS011;40963;52.168;21.296;2022-11-20T06:11:21;43.83;;;17.63;;
55063;SDS011;40963;52.168;21.296;2022-11-20T06:13:47;46.78;;;18.55;;
55063;SDS011;40963;52.168;21.296;2022-11-20T06:16:13;50.13;;;19.60;;
55063;SDS011;40963;52.168;21.296;2022-11-20T06:18:41;46.92;;;20.10;;
55063;SDS011;40963;52.168;21.296;2022-11-20T06:23:37;42.20;;;16.27;;
55063;SDS011;40963;52.168;21.296;2022-11-20T06:26:04;39.38;;;18.35;;
55063;SDS011;40963;52.168;21.296;2022-11-20T06:28:31;44.10;;;18.02;;
55063;SDS011;40963;52.168;21.296;2022-11-20T06:30:57;59.85;;;19.70;;
55063;SDS011;40963;52.168;21.296;2022-11-20T06:33:23;52.00;;;21.52;;
55063;SDS011;40963;52.168;21.296;2022-11-20T06:35:49;54.67;;;23.10;;
55063;SDS011;40963;52.168;21.296;2022-11-20T06:38:14;55.00;;;24.65;;
55063;SDS011;40963;52.168;21.296;2022-11-20T06:40:40;63.53;;;25.15;;
55063;SDS011;40963;52.168;21.296;2022-11-20T06:43:07;66.70;;;25.73;;
55063;SDS011;40963;52.168;21.296;2022-11-20T06:45:33;52.72;;;22.92;;
55063;SDS011;40963;52.168;21.296;2022-11-20T06:47:59;69.55;;;27.00;;
55063;SDS011;40963;52.168;21.296;2022-11-20T06:50:24;68.72;;;26.27;;
55063;SDS011;40963;52.168;21.296;2022-11-20T06:52:50;62.03;;;24.58;;
55063;SDS011;40963;52.168;21.296;2022-11-20T06:55:16;60.00;;;22.35;;
55063;SDS011;40963;52.168;21.296;2022-11-20T06:57:41;49.63;;;21.08;;
55063;SDS011;40963;52.168;21.296;2022-11-20T07:00:07;64.53;;;22.23;;
55063;SDS011;40963;52.168;21.296;2022-11-20T07:02:33;43.90;;;19.10;;
55063;SDS011;40963;52.168;21.296;2022-11-20T07:04:59;52.15;;;19.35;;
55063;SDS011;40963;52.168;21.296;2022-11-20T07:07:25;51.75;;;21.02;;
55063;SDS011;40963;52.168;21.296;2022-11-20T07:09:50;49.90;;;21.05;;
55063;SDS011;40963;52.168;21.296;2022-11-20T07:12:16;48.53;;;20.27;;
55063;SDS011;40963;52.168;21.296;2022-11-20T07:14:41;50.83;;;23.58;;
55063;SDS011;40963;52.168;21.296;2022-11-20T07:17:07;51.45;;;20.67;;
55063;SDS011;40963;52.168;21.296;2022-11-20T07:19:33;57.55;;;23.02;;
55063;SDS011;40963;52.168;21.296;2022-11-20T07:21:58;53.17;;;22.05;;
55063;SDS011;40963;52.168;21.296;2022-11-20T07:24:24;56.53;;;21.80;;
55063;SDS011;40963;52.168;21.296;2022-11-20T07:26:50;50.30;;;21.10;;
55063;SDS011;40963;52.168;21.296;2022-11-20T07:29:15;43.35;;;19.65;;
55063;SDS011;40963;52.168;21.296;2022-11-20T07:31:41;54.45;;;21.70;;
55063;SDS011;40963;52.168;21.296;2022-11-20T07:34:07;64.20;;;22.27;;
55063;SDS011;40963;52.168;21.296;2022-11-20T07:36:33;56.17;;;21.83;;
55063;SDS011;40963;52.168;21.296;2022-11-20T07:38:59;54.03;;;22.92;;
55063;SDS011;40963;52.168;21.296;2022-11-20T07:41:24;42.50;;;19.55;;
55063;SDS011;40963;52.168;21.296;2022-11-20T07:43:50;46.92;;;18.88;;
55063;SDS011;40963;52.168;21.296;2022-11-20T07:46:16;56.50;;;21.90;;
55063;SDS011;40963;52.168;21.296;2022-11-20T07:48:41;60.58;;;22.25;;
55063;SDS011;40963;52.168;21.296;2022-11-20T07:51:07;49.20;;;21.88;;
55063;SDS011;40963;52.168;21.296;2022-11-20T07:53:33;57.97;;;20.67;;
55063;SDS011;40963;52.168;21.296;2022-11-20T07:55:59;46.58;;;20.63;;
55063;SDS011;40963;52.168;21.296;2022-11-20T07:58:26;59.03;;;22.08;;
55063;SDS011;40963;52.168;21.296;2022-11-20T08:00:53;60.22;;;21.63;;
55063;SDS011;40963;52.168;21.296;2022-11-20T08:03:19;57.65;;;22.10;;
55063;SDS011;40963;52.168;21.296;2022-11-20T08:05:44;55.85;;;21.73;;
55063;SDS011;40963;52.168;21.296;2022-11-20T08:08:10;43.05;;;18.38;;
55063;SDS011;40963;52.168;21.296;2022-11-20T08:10:36;48.75;;;20.63;;
55063;SDS011;40963;52.168;21.296;2022-11-20T08:13:01;46.65;;;20.02;;
55063;SDS011;40963;52.168;21.296;2022-11-20T08:15:49;56.00;;;20.15;;
55063;SDS011;40963;52.168;21.296;2022-11-20T08:18:18;48.13;;;18.92;;
55063;SDS011;40963;52.168;21.296;2022-11-20T08:20:44;50.08;;;18.67;;
55063;SDS011;40963;52.168;21.296;2022-11-20T08:23:10;47.65;;;19.27;;
55063;SDS011;40963;52.168;21.296;2022-11-20T08:25:36;47.75;;;19.17;;
55063;SDS011;40963;52.168;21.296;2022-11-20T08:28:07;38.67;;;17.88;;
55063;SDS011;40963;52.168;21.296;2022-11-20T08:30:34;46.78;;;20.70;;
55063;SDS011;40963;52.168;21.296;2022-11-20T08:33:02;40.92;;;16.83;;
55063;SDS011;40963;52.168;21.296;2022-11-20T08:35:33;44.97;;;17.40;;
55063;SDS011;40963;52.168;21.296;2022-11-20T08:38:01;42.60;;;16.77;;
55063;SDS011;40963;52.168;21.296;2022-11-20T08:40:30;43.65;;;17.40;;
55063;SDS011;40963;52.168;21.296;2022-11-20T08:42:57;50.50;;;19.38;;
55063;SDS011;40963;52.168;21.296;2022-11-20T08:45:22;54.00;;;20.30;;
55063;SDS011;40963;52.168;21.296;2022-11-20T08:47:48;52.45;;;19.33;;
55063;SDS011;40963;52.168;21.296;2022-11-20T08:50:14;49.70;;;18.75;;
55063;SDS011;40963;52.168;21.296;2022-11-20T08:52:41;56.35;;;23.48;;
55063;SDS011;40963;52.168;21.296;2022-11-20T08:55:07;71.03;;;28.20;;
55063;SDS011;40963;52.168;21.296;2022-11-20T08:57:34;86.22;;;31.80;;
55063;SDS011;40963;52.168;21.296;2022-11-20T09:00:00;96.65;;;36.20;;
55063;SDS011;40963;52.168;21.296;2022-11-20T09:02:27;126.40;;;48.17;;
55063;SDS011;40963;52.168;21.296;2022-11-20T09:04:53;66.25;;;28.50;;
55063;SDS011;40963;52.168;21.296;2022-11-20T09:07:19;58.42;;;23.77;;
55063;SDS011;40963;52.168;21.296;2022-11-20T09:09:45;45.08;;;18.80;;
55063;SDS011;40963;52.168;21.296;2022-11-20T09:12:10;85.28;;;31.02;;
55063;SDS011;40963;52.168;21.296;2022-11-20T09:14:36;30.25;;;14.98;;
55063;SDS011;40963;52.168;21.296;2022-11-20T09:17:02;64.10;;;28.95;;
55063;SDS011;40963;52.168;21.296;2022-11-20T09:19:27;48.95;;;21.23;;
55063;SDS011;40963;52.168;21.296;2022-11-20T09:21:53;50.67;;;20.73;;
55063;SDS011;40963;52.168;21.296;2022-11-20T09:24:19;42.22;;;18.48;;
55063;SDS011;40963;52.168;21.296;2022-11-20T09:26:45;42.58;;;17.50;;
55063;SDS011;40963;52.168;21.296;2022-11-20T09:29:11;40.30;;;16.95;;
55063;SDS011;40963;52.168;21.296;2022-11-20T09:31:37;39.88;;;17.90;;
55063;SDS011;40963;52.168;21.296;2022-11-20T09:34:03;45.97;;;19.02;;
55063;SDS011;40963;52.168;21.296;2022-11-20T09:36:28;44.78;;;18.27;;
55063;SDS011;40963;52.168;21.296;2022-11-20T09:38:54;38.30;;;17.98;;
55063;SDS011;40963;52.168;21.296;2022-11-20T09:46:47;42.47;;;18.75;;
55063;SDS011;40963;52.168;21.296;2022-11-20T09:49:38;44.58;;;19.63;;
55063;SDS011;40963;52.168;21.296;2022-11-20T09:54:47;45.83;;;16.77;;
55063;SDS011;40963;52.168;21.296;2022-11-20T09:57:14;41.55;;;19.20;;
55063;SDS011;40963;52.168;21.296;2022-11-20T09:59:58;46.80;;;17.35;;
55063;SDS011;40963;52.168;21.296;2022-11-20T10:02:34;43.25;;;17.35;;
55063;SDS011;40963;52.168;21.296;2022-11-20T10:05:22;42.78;;;17.45;;
55063;SDS011;40963;52.168;21.296;2022-11-20T10:24:41;38.83;;;17.70;;
55063;SDS011;40963;52.168;21.296;2022-11-20T10:30:07;48.65;;;20.23;;
55063;SDS011;40963;52.168;21.296;2022-11-20T10:32:40;44.97;;;18.58;;
55063;SDS011;40963;52.168;21.296;2022-11-20T10:35:14;63.35;;;25.50;;
55063;SDS011;40963;52.168;21.296;2022-11-20T10:37:49;42.28;;;17.08;;
55063;SDS011;40963;52.168;21.296;2022-11-20T10:43:12;55.40;;;20.17;;
55063;SDS011;40963;52.168;21.296;2022-11-20T10:45:46;41.20;;;19.35;;
55063;SDS011;40963;52.168;21.296;2022-11-20T10:48:30;42.00;;;17.73;;
55063;SDS011;40963;52.168;21.296;2022-11-20T10:57:01;43.55;;;18.98;;
55063;SDS011;40963;52.168;21.296;2022-11-20T11:00:00;40.55;;;17.45;;
55063;SDS011;40963;52.168;21.296;2022-11-20T11:02:51;32.20;;;15.70;;
55063;SDS011;40963;52.168;21.296;2022-11-20T11:05:27;35.03;;;14.57;;
55063;SDS011;40963;52.168;21.296;2022-11-20T11:08:02;58.60;;;22.55;;
55063;SDS011;40963;52.168;21.296;2022-11-20T11:10:47;36.90;;;16.95;;
55063;SDS011;40963;52.168;21.296;2022-11-20T11:13:27;37.38;;;17.58;;
55063;SDS011;40963;52.168;21.296;2022-11-20T11:15:54;43.05;;;17.88;;
55063;SDS011;40963;52.168;21.296;2022-11-20T11:18:31;36.88;;;15.50;;
55063;SDS011;40963;52.168;21.296;2022-11-20T11:20:59;42.53;;;18.45;;
55063;SDS011;40963;52.168;21.296;2022-11-20T11:25:57;35.72;;;17.15;;
55063;SDS011;40963;52.168;21.296;2022-11-20T11:28:24;39.88;;;16.58;;
55063;SDS011;40963;52.168;21.296;2022-11-20T11:30:52;38.25;;;17.25;;
55063;SDS011;40963;52.168;21.296;2022-11-20T11:33:20;39.10;;;18.02;;
55063;SDS011;40963;52.168;21.296;2022-11-20T11:36:00;35.53;;;16.58;;
55063;SDS011;40963;52.168;21.296;2022-11-20T11:38:40;41.33;;;15.75;;
55063;SDS011;40963;52.168;21.296;2022-11-20T11:41:20;33.78;;;15.15;;
55063;SDS011;40963;52.168;21.296;2022-11-20T11:44:14;32.00;;;14.80;;
55063;SDS011;40963;52.168;21.296;2022-11-20T11:47:03;30.98;;;15.50;;
55063;SDS011;40963;52.168;21.296;2022-11-20T11:49:31;40.60;;;16.77;;
55063;SDS011;40963;52.168;21.296;2022-11-20T11:52:13;35.03;;;14.77;;
55063;SDS011;40963;52.168;21.296;2022-11-20T12:00:14;39.33;;;16.48;;
55063;SDS011;40963;52.168;21.296;2022-11-20T12:08:15;41.35;;;17.30;;
55063;SDS011;40963;52.168;21.296;2022-11-20T12:10:56;46.53;;;20.52;;
55063;SDS011;40963;52.168;21.296;2022-11-20T12:13:42;44.90;;;19.15;;
55063;SDS011;40963;52.168;21.296;2022-11-20T12:16:19;36.97;;;15.60;;
55063;SDS011;40963;52.168;21.296;2022-11-20T12:18:46;41.90;;;16.17;;
55063;SDS011;40963;52.168;21.296;2022-11-20T12:23:59;43.50;;;18.45;;
55063;SDS011;40963;52.168;21.296;2022-11-20T12:29:19;40.08;;;18.55;;
55063;SDS011;40963;52.168;21.296;2022-11-20T12:32:02;37.63;;;16.63;;
55063;SDS011;40963;52.168;21.296;2022-11-20T12:34:56;36.28;;;16.15;;
55063;SDS011;40963;52.168;21.296;2022-11-20T12:37:30;48.00;;;21.48;;
55063;SDS011;40963;52.168;21.296;2022-11-20T12:42:49;37.85;;;17.58;;
55063;SDS011;40963;52.168;21.296;2022-11-20T12:58:55;39.05;;;18.15;;
55063;SDS011;40963;52.168;21.296;2022-11-20T13:01:45;43.53;;;20.58;;
55063;SDS011;40963;52.168;21.296;2022-11-20T13:07:08;43.22;;;18.30;;
55063;SDS011;40963;52.168;21.296;2022-11-20T13:09:38;48.80;;;21.10;;
55063;SDS011;40963;52.168;21.296;2022-11-20T13:12:10;63.80;;;21.67;;
55063;SDS011;40963;52.168;21.296;2022-11-20T13:20:12;37.40;;;17.38;;
55063;SDS011;40963;52.168;21.296;2022-11-20T13:27:50;39.22;;;16.55;;
55063;SDS011;40963;52.168;21.296;2022-11-20T13:30:17;39.13;;;16.17;;
55063;SDS011;40963;52.168;21.296;2022-11-20T13:32:53;38.97;;;15.70;;
55063;SDS011;40963;52.168;21.296;2022-11-20T13:35:28;41.60;;;17.42;;
55063;SDS011;40963;52.168;21.296;2022-11-20T13:40:30;38.60;;;15.23;;
55063;SDS011;40963;52.168;21.296;2022-11-20T13:43:18;33.42;;;15.02;;
55063;SDS011;40963;52.168;21.296;2022-11-20T13:46:01;34.58;;;15.18;;
55063;SDS011;40963;52.168;21.296;2022-11-20T13:48:32;38.90;;;15.55;;
55063;SDS011;40963;52.168;21.296;2022-11-20T14:02:14;35.47;;;15.95;;
55063;SDS011;40963;52.168;21.296;2022-11-20T14:04:43;45.28;;;18.08;;
55063;SDS011;40963;52.168;21.296;2022-11-20T14:07:13;56.92;;;20.75;;
55063;SDS011;40963;52.168;21.296;2022-11-20T14:09:48;61.58;;;25.15;;
55063;SDS011;40963;52.168;21.296;2022-11-20T14:12:18;62.05;;;22.67;;
55063;SDS011;40963;52.168;21.296;2022-11-20T14:14:50;64.68;;;27.55;;
55063;SDS011;40963;52.168;21.296;2022-11-20T14:17:21;74.82;;;29.27;;
55063;SDS011;40963;52.168;21.296;2022-11-20T14:19:50;88.38;;;34.30;;
55063;SDS011;40963;52.168;21.296;2022-11-20T14:22:19;80.95;;;32.08;;
55063;SDS011;40963;52.168;21.296;2022-11-20T14:25:00;81.70;;;31.85;;
55063;SDS011;40963;52.168;21.296;2022-11-20T14:27:29;74.00;;;28.83;;
55063;SDS011;40963;52.168;21.296;2022-11-20T14:30:00;103.35;;;35.70;;
55063;SDS011;40963;52.168;21.296;2022-11-20T14:32:28;82.63;;;29.33;;
55063;SDS011;40963;52.168;21.296;2022-11-20T14:34:55;81.20;;;30.90;;
55063;SDS011;40963;52.168;21.296;2022-11-20T14:37:26;108.43;;;36.08;;
55063;SDS011;40963;52.168;21.296;2022-11-20T14:39:55;94.78;;;32.15;;
55063;SDS011;40963;52.168;21.296;2022-11-20T14:44:48;66.45;;;26.50;;
55063;SDS011;40963;52.168;21.296;2022-11-20T14:47:17;76.40;;;29.77;;
55063;SDS011;40963;52.168;21.296;2022-11-20T14:49:46;62.08;;;24.88;;
55063;SDS011;40963;52.168;21.296;2022-11-20T14:52:14;81.20;;;30.83;;
55063;SDS011;40963;52.168;21.296;2022-11-20T14:54:52;58.38;;;22.75;;
55063;SDS011;40963;52.168;21.296;2022-11-20T14:57:53;56.95;;;23.95;;
55063;SDS011;40963;52.168;21.296;2022-11-20T15:00:19;51.58;;;21.60;;
55063;SDS011;40963;52.168;21.296;2022-11-20T15:02:47;59.22;;;23.98;;
55063;SDS011;40963;52.168;21.296;2022-11-20T15:05:15;59.47;;;23.65;;
55063;SDS011;40963;52.168;21.296;2022-11-20T15:07:43;73.80;;;27.02;;
55063;SDS011;40963;52.168;21.296;2022-11-20T15:10:27;60.28;;;23.30;;
55063;SDS011;40963;52.168;21.296;2022-11-20T15:15:25;57.25;;;23.42;;
55063;SDS011;40963;52.168;21.296;2022-11-20T15:21:16;65.40;;;23.08;;
55063;SDS011;40963;52.168;21.296;2022-11-20T15:23:43;58.08;;;23.67;;
55063;SDS011;40963;52.168;21.296;2022-11-20T15:26:10;54.88;;;23.95;;
55063;SDS011;40963;52.168;21.296;2022-11-20T15:28:41;64.63;;;22.65;;
55063;SDS011;40963;52.168;21.296;2022-11-20T15:31:11;57.90;;;22.38;;
55063;SDS011;40963;52.168;21.296;2022-11-20T15:33:37;61.90;;;23.63;;
55063;SDS011;40963;52.168;21.296;2022-11-20T15:36:03;57.63;;;22.73;;
55063;SDS011;40963;52.168;21.296;2022-11-20T15:38:29;73.15;;;24.00;;
55063;SDS011;40963;52.168;21.296;2022-11-20T15:40:55;60.10;;;21.13;;
55063;SDS011;40963;52.168;21.296;2022-11-20T15:43:20;58.05;;;21.92;;
55063;SDS011;40963;52.168;21.296;2022-11-20T15:45:51;58.85;;;24.25;;
55063;SDS011;40963;52.168;21.296;2022-11-20T15:48:41;61.70;;;23.35;;
55063;SDS011;40963;52.168;21.296;2022-11-20T15:53:35;59.40;;;22.42;;
55063;SDS011;40963;52.168;21.296;2022-11-20T15:56:01;57.55;;;23.58;;
55063;SDS011;40963;52.168;21.296;2022-11-20T15:58:28;52.95;;;21.65;;
55063;SDS011;40963;52.168;21.296;2022-11-20T16:00:53;70.20;;;24.83;;
55063;SDS011;40963;52.168;21.296;2022-11-20T16:03:19;57.60;;;21.55;;
55063;SDS011;40963;52.168;21.296;2022-11-20T16:05:45;59.10;;;20.80;;
55063;SDS011;40963;52.168;21.296;2022-11-20T16:08:11;62.95;;;21.77;;
55063;SDS011;40963;52.168;21.296;2022-11-20T16:10:37;54.83;;;21.27;;
55063;SDS011;40963;52.168;21.296;2022-11-20T16:13:03;65.45;;;22.40;;
55063;SDS011;40963;52.168;21.296;2022-11-20T16:15:51;45.63;;;19.20;;
55063;SDS011;40963;52.168;21.296;2022-11-20T16:18:21;60.72;;;22.13;;
55063;SDS011;40963;52.168;21.296;2022-11-20T16:20:50;51.45;;;20.50;;
55063;SDS011;40963;52.168;21.296;2022-11-20T16:23:17;51.13;;;20.75;;